createdAt,value
2019-05-28T00:02:10.769Z,99.82
2019-05-28T00:04:41.175Z,99.69
2019-05-28T00:07:11.541Z,100.00
2019-05-28T00:09:41.903Z,100.00
2019-05-28T00:12:12.275Z,100.00
2019-05-28T00:14:42.632Z,100.00
2019-05-28T00:17:13.064Z,100.00
2019-05-28T00:19:43.445Z,100.00
2019-05-28T00:22:13.903Z,100.00
2019-05-28T00:24:44.271Z,100.00
2019-05-28T00:27:14.599Z,100.00
2019-05-28T00:29:44.969Z,100.00
2019-05-28T00:32:15.343Z,100.00
2019-05-28T00:34:45.703Z,100.00
2019-05-28T00:37:16.073Z,100.00
2019-05-28T00:39:46.467Z,100.00
2019-05-28T00:42:16.821Z,100.00
2019-05-28T00:44:47.257Z,100.00
2019-05-28T00:47:17.715Z,100.00
2019-05-28T00:49:49.769Z,100.00
2019-05-28T00:52:20.277Z,100.00
2019-05-28T00:54:50.735Z,100.00
2019-05-28T00:57:21.670Z,100.00
2019-05-28T00:59:52.276Z,100.00
2019-05-28T01:02:22.637Z,100.00
2019-05-28T01:04:53.111Z,100.00
2019-05-28T01:07:23.447Z,100.00
2019-05-28T01:09:53.855Z,100.00
2019-05-28T01:12:24.312Z,100.00
2019-05-28T01:14:54.655Z,100.00
2019-05-28T01:17:24.995Z,100.00
2019-05-28T01:19:55.363Z,100.00
2019-05-28T01:22:25.836Z,100.00
2019-05-28T01:24:56.181Z,100.00
2019-05-28T01:27:26.553Z,100.00
2019-05-28T01:29:56.913Z,100.00
2019-05-28T01:32:27.295Z,100.00
2019-05-28T01:34:57.707Z,100.00
2019-05-28T01:37:28.886Z,100.00
2019-05-28T01:39:59.637Z,100.00
2019-05-28T01:42:31.625Z,100.00
2019-05-28T01:45:02.036Z,100.00
2019-05-28T01:47:32.433Z,100.00
2019-05-28T01:50:02.860Z,100.00
2019-05-28T01:52:33.223Z,100.00
2019-05-28T01:55:05.181Z,100.00
2019-05-28T01:57:35.533Z,100.00
2019-05-28T02:00:07.071Z,100.00
2019-05-28T02:02:37.433Z,100.00
2019-05-28T02:05:09.387Z,100.00
2019-05-28T02:07:39.755Z,100.00
2019-05-28T02:10:12.046Z,100.00
2019-05-28T02:12:42.521Z,100.00
2019-05-28T02:15:14.655Z,100.00
2019-05-28T02:17:45.034Z,100.00
2019-05-28T02:20:15.557Z,100.00
2019-05-28T02:22:45.985Z,100.00
2019-05-28T02:25:16.759Z,100.00
2019-05-28T02:27:47.171Z,100.00
2019-05-28T02:30:18.251Z,100.00
2019-05-28T02:32:48.609Z,100.00
2019-05-28T02:35:20.371Z,100.00
2019-05-28T02:37:50.747Z,100.00
2019-05-28T02:40:21.395Z,100.00
2019-05-28T02:42:51.755Z,100.00
2019-05-28T02:45:22.301Z,100.00
2019-05-28T02:47:52.696Z,100.00
2019-05-28T02:50:44.578Z,100.00
2019-05-28T02:53:14.949Z,100.00
2019-05-28T02:55:46.769Z,100.00
2019-05-28T02:58:18.827Z,100.00
2019-05-28T03:00:50.909Z,100.00
2019-05-28T03:03:22.770Z,100.00
2019-05-28T03:05:53.472Z,100.00
2019-05-28T03:08:25.044Z,100.00
2019-05-28T03:11:02.997Z,100.00
2019-05-28T03:13:28.341Z,100.00
2019-05-28T03:16:01.748Z,100.00
2019-05-28T03:18:34.330Z,100.00
2019-05-28T03:21:05.164Z,100.00
2019-05-28T03:23:37.239Z,100.00
2019-05-28T03:26:07.900Z,100.00
2019-05-28T03:28:38.501Z,100.00
2019-05-28T03:31:09.301Z,100.00
2019-05-28T03:33:39.836Z,100.00
2019-05-28T03:36:11.661Z,100.00
2019-05-28T03:38:44.508Z,100.00
2019-05-28T03:41:15.121Z,100.00
2019-05-28T03:43:45.499Z,100.00
2019-05-28T03:46:17.024Z,100.00
2019-05-28T03:48:47.405Z,100.00
2019-05-28T03:51:17.913Z,100.00
2019-05-28T03:53:48.904Z,100.00
2019-05-28T03:56:19.629Z,100.00
2019-05-28T03:58:50.125Z,100.00
2019-05-28T04:01:20.558Z,100.00
2019-05-28T04:03:50.950Z,100.00
2019-05-28T04:06:21.369Z,100.00
2019-05-28T04:08:52.876Z,100.00
2019-05-28T04:11:23.213Z,100.00
2019-05-28T04:13:53.617Z,99.76
2019-05-28T04:16:23.964Z,99.70
2019-05-28T04:18:54.297Z,99.21
2019-05-28T04:21:24.654Z,98.43
2019-05-28T04:23:55.111Z,97.19
2019-05-28T04:26:26.606Z,96.58
2019-05-28T04:28:56.952Z,95.54
2019-05-28T04:31:27.310Z,93.34
2019-05-28T04:33:58.466Z,91.88
2019-05-28T04:36:29.215Z,90.92
2019-05-28T04:38:59.773Z,90.31
2019-05-28T04:41:30.150Z,89.30
2019-05-28T04:44:00.503Z,90.29
2019-05-28T04:46:30.863Z,91.78
2019-05-28T04:49:01.229Z,89.50
2019-05-28T04:51:31.591Z,87.30
2019-05-28T04:54:01.966Z,85.38
2019-05-28T04:56:32.323Z,83.02
2019-05-28T04:59:03.944Z,80.11
2019-05-28T05:01:34.590Z,77.98
2019-05-28T05:04:05.190Z,78.32
2019-05-28T05:06:35.675Z,77.18
2019-05-28T05:09:07.855Z,75.32
2019-05-28T05:11:38.708Z,73.52
2019-05-28T05:14:09.469Z,72.98
2019-05-28T05:16:39.886Z,72.98
2019-05-28T05:19:10.350Z,74.79
2019-05-28T05:21:40.734Z,73.92
2019-05-28T05:24:11.223Z,73.63
2019-05-28T05:26:41.579Z,73.97
2019-05-28T05:29:11.989Z,74.63
2019-05-28T05:31:42.391Z,74.48
2019-05-28T05:34:12.846Z,73.12
2019-05-28T05:36:43.201Z,73.12
2019-05-28T05:39:13.586Z,73.65
2019-05-28T05:41:43.919Z,75.36
2019-05-28T05:44:14.366Z,71.69
2019-05-28T05:46:44.818Z,69.13
2019-05-28T05:49:16.160Z,69.93
2019-05-28T05:51:46.549Z,69.93
2019-05-28T05:54:16.904Z,67.05
2019-05-28T05:56:47.238Z,59.24
2019-05-28T05:59:17.735Z,60.93
2019-05-28T06:01:48.131Z,60.30
2019-05-28T06:04:18.539Z,62.31
2019-05-28T06:06:48.880Z,65.02
2019-05-28T06:09:19.247Z,64.20
2019-05-28T06:11:49.750Z,61.77
2019-05-28T06:14:20.113Z,58.16
2019-05-28T06:16:50.469Z,56.43
2019-05-28T06:19:20.831Z,51.79
2019-05-28T06:21:51.211Z,51.38
2019-05-28T06:24:21.561Z,50.78
2019-05-28T06:26:52.039Z,51.16
2019-05-28T06:29:22.427Z,51.17
2019-05-28T06:31:52.872Z,50.79
2019-05-28T06:34:23.244Z,51.19
2019-05-28T06:36:53.622Z,50.57
2019-05-28T06:39:23.969Z,47.65
2019-05-28T06:41:54.340Z,47.19
2019-05-28T06:44:24.697Z,45.10
2019-05-28T06:46:55.058Z,44.58
2019-05-28T06:49:25.536Z,47.51
2019-05-28T06:51:55.851Z,46.10
2019-05-28T06:54:26.212Z,44.05
2019-05-28T06:56:56.587Z,43.35
2019-05-28T06:59:26.919Z,44.65
2019-05-28T07:01:57.348Z,46.38
2019-05-28T07:04:32.760Z,47.94
2019-05-28T07:06:59.815Z,43.08
2019-05-28T07:09:30.209Z,41.11
2019-05-28T07:12:00.520Z,38.88
2019-05-28T07:14:31.142Z,38.72
2019-05-28T07:17:01.595Z,40.28
2019-05-28T07:19:32.020Z,40.41
2019-05-28T07:22:03.907Z,39.73
2019-05-28T07:24:34.368Z,37.92
2019-05-28T07:27:04.795Z,38.52
2019-05-28T07:29:35.188Z,38.79
2019-05-28T07:32:05.578Z,41.10
2019-05-28T07:34:35.918Z,40.73
2019-05-28T07:37:06.259Z,42.77
2019-05-28T07:39:36.603Z,41.15
2019-05-28T07:42:06.936Z,38.19
2019-05-28T07:44:37.327Z,33.46
2019-05-28T07:47:11.121Z,28.79
2019-05-28T07:49:39.769Z,25.97
2019-05-28T07:52:10.346Z,27.06
2019-05-28T07:54:40.743Z,29.26
2019-05-28T07:57:11.098Z,30.90
2019-05-28T07:59:43.266Z,33.13
2019-05-28T08:02:13.700Z,34.26
2019-05-28T08:04:47.221Z,37.75
2019-05-28T08:07:16.447Z,37.49
2019-05-28T08:09:46.819Z,36.70
2019-05-28T08:12:17.296Z,34.75
2019-05-28T08:14:47.687Z,33.57
2019-05-28T08:17:19.634Z,33.24
2019-05-28T08:19:49.965Z,38.48
2019-05-28T08:22:20.365Z,39.06
2019-05-28T08:24:54.899Z,40.44
2019-05-28T08:27:24.108Z,42.78
2019-05-28T08:29:54.627Z,44.42
2019-05-28T08:32:24.959Z,44.75
2019-05-28T08:35:05.001Z,47.56
2019-05-28T08:37:27.403Z,48.05
2019-05-28T08:39:57.821Z,46.64
2019-05-28T08:42:28.207Z,46.41
2019-05-28T08:44:59.024Z,47.66
2019-05-28T08:47:29.744Z,49.96
2019-05-28T08:50:00.113Z,51.50
2019-05-28T08:52:30.522Z,53.45
2019-05-28T08:55:00.912Z,53.61
2019-05-28T08:57:31.340Z,52.89
2019-05-28T09:00:01.990Z,53.06
2019-05-28T09:02:32.528Z,54.76
2019-05-28T09:05:02.964Z,54.28
2019-05-28T09:07:33.478Z,55.44
2019-05-28T09:10:04.250Z,58.34
2019-05-28T09:12:34.789Z,58.64
2019-05-28T09:15:05.587Z,59.47
2019-05-28T09:17:37.387Z,59.86
2019-05-28T09:20:08.261Z,64.23
2019-05-28T09:22:38.696Z,64.23
2019-05-28T09:25:09.568Z,66.20
2019-05-28T09:27:39.940Z,71.91
2019-05-28T09:30:10.910Z,79.44
2019-05-28T09:32:41.562Z,82.62
2019-05-28T09:35:11.966Z,86.13
2019-05-28T09:37:42.360Z,87.72
2019-05-28T09:40:13.084Z,88.54
2019-05-28T09:42:43.542Z,89.60
2019-05-28T09:45:22.651Z,92.19
2019-05-28T09:47:46.166Z,92.94
2019-05-28T09:50:30.082Z,95.59
2019-05-28T09:52:55.034Z,97.89
2019-05-28T09:55:21.512Z,100.00
2019-05-28T09:57:51.864Z,100.00
2019-05-28T10:00:22.712Z,100.00
2019-05-28T10:02:53.203Z,100.00
2019-05-28T10:05:23.947Z,100.00
2019-05-28T10:07:54.319Z,100.00
2019-05-28T10:10:24.744Z,100.00
2019-05-28T10:12:55.181Z,100.00
2019-05-28T10:15:26.559Z,100.00
2019-05-28T10:17:56.898Z,100.00
2019-05-28T10:20:30.744Z,100.00
2019-05-28T10:23:01.096Z,100.00
2019-05-28T10:25:31.489Z,100.00
2019-05-28T10:28:02.099Z,100.00
2019-05-28T10:30:32.516Z,100.00
2019-05-28T10:33:02.978Z,100.00
2019-05-28T10:35:33.752Z,100.00
2019-05-28T10:38:04.123Z,100.00
2019-05-28T10:40:34.592Z,100.00
2019-05-28T10:43:04.952Z,100.00
2019-05-28T10:45:35.384Z,100.00
2019-05-28T10:48:05.799Z,100.00
2019-05-28T10:50:36.152Z,100.00
2019-05-28T10:53:06.577Z,99.46
2019-05-28T10:55:38.137Z,95.69
2019-05-28T10:58:10.352Z,93.56
2019-05-28T11:00:40.751Z,90.91
2019-05-28T11:03:11.103Z,88.82
2019-05-28T11:05:41.536Z,85.50
2019-05-28T11:08:13.894Z,85.57
2019-05-28T11:10:44.258Z,86.05
2019-05-28T11:13:14.663Z,86.63
2019-05-28T11:15:45.053Z,82.04
2019-05-28T11:18:15.448Z,82.83
2019-05-28T11:20:46.015Z,82.83
2019-05-28T11:23:18.219Z,84.51
2019-05-28T11:25:48.849Z,86.04
2019-05-28T11:28:19.635Z,86.92
2019-05-28T11:30:50.012Z,86.05
2019-05-28T11:33:20.421Z,86.03
2019-05-28T11:35:50.861Z,87.05
2019-05-28T11:38:21.214Z,88.20
2019-05-28T11:40:51.584Z,87.87
2019-05-28T11:43:23.094Z,88.44
2019-05-28T11:45:53.601Z,89.65
2019-05-28T11:48:24.048Z,89.66
2019-05-28T11:50:54.396Z,89.01
2019-05-28T11:53:24.783Z,90.42
2019-05-28T11:55:55.109Z,89.43
2019-05-28T11:58:25.553Z,90.46
2019-05-28T12:00:56.009Z,90.41
2019-05-28T12:03:26.384Z,91.79
2019-05-28T12:05:56.818Z,92.45
2019-05-28T12:08:27.223Z,88.99
2019-05-28T12:10:57.639Z,85.18
2019-05-28T12:13:28.430Z,85.16
2019-05-28T12:15:59.182Z,85.22
2019-05-28T12:18:29.685Z,84.13
2019-05-28T12:21:00.108Z,84.39
2019-05-28T12:23:30.562Z,83.96
2019-05-28T12:26:00.923Z,84.75
2019-05-28T12:28:37.553Z,84.73
2019-05-28T12:31:03.482Z,85.67
2019-05-28T12:33:33.849Z,85.81
2019-05-28T12:36:04.476Z,84.55
2019-05-28T12:38:34.973Z,83.99
2019-05-28T12:41:05.337Z,82.19
2019-05-28T12:43:36.359Z,79.33
2019-05-28T12:46:06.760Z,77.25
2019-05-28T12:48:37.185Z,76.76
2019-05-28T12:51:07.550Z,76.61
2019-05-28T12:53:50.323Z,75.54
2019-05-28T12:56:11.448Z,75.23
2019-05-28T12:58:43.484Z,72.91
2019-05-28T13:01:14.379Z,73.35
2019-05-28T13:03:45.739Z,71.24
2019-05-28T13:06:16.950Z,67.83
2019-05-28T13:08:47.435Z,66.71
2019-05-28T13:11:17.813Z,66.65
2019-05-28T13:13:49.160Z,65.82
2019-05-28T13:16:20.304Z,65.82
2019-05-28T13:18:51.678Z,64.86
2019-05-28T13:21:22.617Z,64.46
2019-05-28T13:23:53.201Z,63.68
2019-05-28T13:26:23.607Z,62.99
2019-05-28T13:28:54.000Z,62.24
2019-05-28T13:31:27.270Z,65.10
2019-05-28T13:33:57.652Z,65.10
2019-05-28T13:36:28.014Z,66.01
2019-05-28T13:38:58.760Z,65.50
2019-05-28T13:41:29.513Z,65.29
2019-05-28T13:44:00.415Z,67.63
2019-05-28T13:46:31.036Z,67.27
2019-05-28T13:49:01.440Z,67.64
2019-05-28T13:51:32.073Z,68.75
2019-05-28T13:54:02.412Z,68.85
2019-05-28T13:56:32.903Z,67.50
2019-05-28T13:59:03.486Z,66.53
2019-05-28T14:01:33.965Z,64.31
2019-05-28T14:04:04.539Z,64.28
2019-05-28T14:06:34.935Z,64.53
2019-05-28T14:09:08.450Z,63.82
2019-05-28T14:11:38.869Z,63.82
2019-05-28T14:14:09.291Z,62.64
2019-05-28T14:16:39.667Z,62.70
2019-05-28T14:19:10.001Z,62.02
2019-05-28T14:21:40.360Z,61.52
2019-05-28T14:24:10.894Z,60.13
2019-05-28T14:26:41.348Z,58.44
2019-05-28T14:29:11.731Z,58.87
2019-05-28T14:31:42.189Z,59.43
2019-05-28T14:34:12.648Z,59.92
2019-05-28T14:36:43.069Z,59.67
2019-05-28T14:39:13.434Z,59.29
2019-05-28T14:41:43.782Z,59.52
2019-05-28T14:44:14.180Z,59.25
2019-05-28T14:46:44.559Z,60.09
2019-05-28T14:49:14.884Z,60.05
2019-05-28T14:51:45.274Z,60.39
2019-05-28T14:54:15.608Z,60.49
2019-05-28T14:56:45.969Z,60.49
2019-05-28T14:59:16.523Z,61.11
2019-05-28T15:01:46.861Z,60.96
2019-05-28T15:04:17.332Z,60.97
2019-05-28T15:06:47.873Z,60.69
2019-05-28T15:09:21.318Z,60.52
2019-05-28T15:11:50.413Z,59.98
2019-05-28T15:14:20.774Z,59.90
2019-05-28T15:16:51.211Z,58.94
2019-05-28T15:19:21.550Z,60.47
2019-05-28T15:21:51.919Z,61.34
2019-05-28T15:24:22.300Z,61.34
2019-05-28T15:26:52.659Z,64.80
2019-05-28T15:29:23.142Z,68.89
2019-05-28T15:31:53.586Z,71.44
2019-05-28T15:34:23.914Z,73.56
2019-05-28T15:36:54.267Z,81.56
2019-05-28T15:39:39.011Z,84.37
2019-05-28T15:41:56.709Z,84.50
2019-05-28T15:44:27.144Z,85.82
2019-05-28T15:46:57.446Z,86.81
2019-05-28T15:49:27.829Z,87.38
2019-05-28T15:52:07.405Z,87.74
2019-05-28T15:54:30.281Z,87.44
2019-05-28T15:57:00.673Z,87.92
2019-05-28T15:59:31.211Z,85.25
2019-05-28T16:02:01.606Z,82.43
2019-05-28T16:04:31.955Z,83.59
2019-05-28T16:07:02.489Z,82.99
2019-05-28T16:09:32.850Z,83.68
2019-05-28T16:12:03.272Z,82.78
2019-05-28T16:14:33.802Z,82.49
2019-05-28T16:17:06.690Z,81.92
2019-05-28T16:19:37.030Z,80.86
2019-05-28T16:22:07.475Z,79.34
2019-05-28T16:24:37.833Z,78.81
2019-05-28T16:27:08.528Z,77.62
2019-05-28T16:29:39.265Z,77.94
2019-05-28T16:32:09.727Z,77.05
2019-05-28T16:34:40.220Z,77.02
2019-05-28T16:37:10.569Z,76.83
2019-05-28T16:39:40.938Z,75.24
2019-05-28T16:42:11.365Z,75.28
2019-05-28T16:44:41.762Z,75.23
2019-05-28T16:47:18.546Z,75.88
2019-05-28T16:49:44.244Z,76.08
2019-05-28T16:52:14.595Z,75.09
2019-05-28T16:54:45.823Z,74.75
2019-05-28T16:57:16.260Z,74.44
2019-05-28T16:59:46.676Z,73.83
2019-05-28T17:02:17.105Z,73.40
2019-05-28T17:04:47.443Z,73.60
2019-05-28T17:07:18.509Z,74.06
2019-05-28T17:09:49.244Z,74.47
2019-05-28T17:12:19.786Z,74.17
2019-05-28T17:14:50.332Z,75.18
2019-05-28T17:17:20.706Z,75.83
2019-05-28T17:19:51.183Z,76.17
2019-05-28T17:22:21.546Z,75.79
2019-05-28T17:24:51.925Z,76.21
2019-05-28T17:27:22.285Z,76.69
2019-05-28T17:29:52.690Z,76.99
2019-05-28T17:32:23.032Z,77.16
2019-05-28T17:34:53.499Z,78.07
2019-05-28T17:37:23.882Z,78.17
2019-05-28T17:39:54.262Z,80.03
2019-05-28T17:42:24.692Z,80.75
2019-05-28T17:44:55.050Z,81.63
2019-05-28T17:47:25.397Z,81.78
2019-05-28T17:49:55.732Z,82.25
2019-05-28T17:52:26.101Z,82.32
2019-05-28T17:54:56.483Z,82.46
2019-05-28T17:57:26.852Z,82.72
2019-05-28T17:59:57.205Z,82.04
2019-05-28T18:02:27.639Z,81.76
2019-05-28T18:04:58.450Z,82.03
2019-05-28T18:07:29.099Z,82.14
2019-05-28T18:10:00.033Z,82.73
2019-05-28T18:12:30.472Z,83.28
2019-05-28T18:15:00.839Z,83.26
2019-05-28T18:17:31.257Z,83.95
2019-05-28T18:20:01.767Z,84.51
2019-05-28T18:22:32.180Z,84.48
2019-05-28T18:25:02.604Z,84.40
2019-05-28T18:27:33.010Z,84.10
2019-05-28T18:30:03.689Z,84.70
2019-05-28T18:32:34.060Z,85.61
2019-05-28T18:35:04.559Z,86.60
2019-05-28T18:37:34.941Z,86.94
2019-05-28T18:40:07.600Z,87.00
2019-05-28T18:42:38.029Z,86.44
2019-05-28T18:45:09.733Z,86.08
2019-05-28T18:47:40.755Z,85.79
2019-05-28T18:50:11.330Z,83.44
2019-05-28T18:52:41.703Z,82.26
2019-05-28T18:55:12.108Z,82.61
2019-05-28T18:57:42.474Z,82.18
2019-05-28T19:00:14.386Z,81.56
2019-05-28T19:02:44.837Z,81.00
2019-05-28T19:05:16.285Z,81.68
2019-05-28T19:07:46.647Z,81.42
2019-05-28T19:10:17.049Z,81.62
2019-05-28T19:12:47.383Z,82.25
2019-05-28T19:15:17.881Z,83.06
2019-05-28T19:17:48.212Z,83.96
2019-05-28T19:20:19.480Z,85.00
2019-05-28T19:22:49.850Z,86.61
2019-05-28T19:25:20.488Z,87.88
2019-05-28T19:27:50.886Z,89.19
2019-05-28T19:30:33.170Z,89.45
2019-05-28T19:33:04.765Z,90.80
2019-05-28T19:35:35.442Z,91.36
2019-05-28T19:38:05.843Z,91.69
2019-05-28T19:40:37.607Z,92.63
2019-05-28T19:43:07.947Z,92.09
2019-05-28T19:45:38.584Z,93.39
2019-05-28T19:48:09.513Z,93.74
2019-05-28T19:50:39.989Z,94.00
2019-05-28T19:53:10.369Z,94.66
2019-05-28T19:55:40.750Z,96.27
2019-05-28T19:58:11.136Z,97.12
2019-05-28T20:00:41.505Z,98.21
2019-05-28T20:03:11.858Z,98.66
2019-05-28T20:05:42.203Z,99.33
2019-05-28T20:08:12.665Z,99.75
2019-05-28T20:10:43.104Z,100.00
2019-05-28T20:13:13.508Z,99.75
2019-05-28T20:15:43.887Z,100.00
2019-05-28T20:18:26.342Z,100.00
2019-05-28T20:20:47.501Z,100.00
2019-05-28T20:23:18.563Z,100.00
2019-05-28T20:25:51.520Z,100.00
2019-05-28T20:28:21.249Z,100.00
2019-05-28T20:30:51.767Z,100.00
2019-05-28T20:33:22.122Z,100.00
2019-05-28T20:35:52.489Z,100.00
2019-05-28T20:38:22.841Z,100.00
2019-05-28T20:40:53.220Z,100.00
2019-05-28T20:43:23.560Z,100.00
2019-05-28T20:45:53.969Z,100.00
2019-05-28T20:48:24.327Z,100.00
2019-05-28T20:51:07.031Z,100.00
2019-05-28T20:53:35.479Z,99.83
2019-05-28T20:55:59.118Z,99.14
2019-05-28T20:58:39.850Z,98.21
2019-05-28T21:01:02.094Z,98.13
2019-05-28T21:03:32.457Z,97.39
2019-05-28T21:06:02.829Z,97.39
2019-05-28T21:08:33.197Z,97.37
2019-05-28T21:11:03.607Z,97.27
2019-05-28T21:13:34.139Z,97.25
2019-05-28T21:16:04.647Z,96.63
2019-05-28T21:18:34.982Z,95.98
2019-05-28T21:21:05.440Z,96.55
2019-05-28T21:23:35.771Z,96.79
2019-05-28T21:26:06.487Z,97.01
2019-05-28T21:28:36.871Z,96.77
2019-05-28T21:31:07.230Z,96.47
2019-05-28T21:33:37.589Z,96.48
2019-05-28T21:36:07.973Z,96.27
2019-05-28T21:38:38.801Z,96.37
2019-05-28T21:41:09.539Z,96.41
2019-05-28T21:43:39.897Z,96.58
2019-05-28T21:46:10.274Z,96.46
2019-05-28T21:48:40.694Z,95.96
2019-05-28T21:51:11.154Z,95.93
2019-05-28T21:53:43.099Z,96.21
2019-05-28T21:56:13.453Z,96.45
2019-05-28T21:58:43.778Z,96.51
2019-05-28T22:01:16.905Z,96.27
2019-05-28T22:03:47.282Z,96.15
2019-05-28T22:06:17.826Z,95.71
2019-05-28T22:08:48.177Z,95.85
2019-05-28T22:11:18.740Z,96.15
2019-05-28T22:13:49.533Z,96.38
2019-05-28T22:16:19.924Z,96.23
2019-05-28T22:18:50.362Z,96.14
2019-05-28T22:21:20.753Z,96.28
2019-05-28T22:23:51.131Z,96.35
2019-05-28T22:26:21.625Z,96.73
2019-05-28T22:28:51.963Z,97.03
2019-05-28T22:31:22.298Z,96.91
2019-05-28T22:33:52.664Z,97.07
2019-05-28T22:36:23.213Z,97.37
2019-05-28T22:39:06.753Z,97.41
2019-05-28T22:41:40.049Z,96.93
2019-05-28T22:44:10.407Z,96.97
2019-05-28T22:46:40.790Z,97.30
2019-05-28T22:49:11.164Z,97.16
2019-05-28T22:51:41.483Z,97.31
2019-05-28T22:54:11.839Z,97.07
2019-05-28T22:56:42.272Z,97.16
2019-05-28T22:59:12.634Z,97.51
2019-05-28T23:01:43.080Z,97.16
2019-05-28T23:04:13.447Z,97.44
2019-05-28T23:06:43.777Z,97.60
2019-05-28T23:09:14.240Z,97.69
2019-05-28T23:11:44.585Z,97.79
2019-05-28T23:14:14.967Z,97.80
2019-05-28T23:16:45.331Z,97.23
2019-05-28T23:19:15.676Z,97.23
2019-05-28T23:21:46.125Z,97.16
2019-05-28T23:24:16.449Z,97.00
2019-05-28T23:26:46.767Z,97.16
2019-05-28T23:29:17.133Z,97.32
2019-05-28T23:31:47.485Z,97.43
2019-05-28T23:34:18.501Z,96.65
2019-05-28T23:36:49.121Z,96.67
2019-05-28T23:39:19.686Z,97.07
2019-05-28T23:41:50.121Z,96.77
2019-05-28T23:44:20.471Z,96.79
2019-05-28T23:46:50.853Z,96.43
2019-05-28T23:49:21.262Z,96.34
2019-05-28T23:51:51.611Z,96.34
2019-05-28T23:54:21.969Z,96.48
2019-05-28T23:56:52.329Z,96.74
2019-05-28T23:59:22.670Z,96.56
